sensor_id;sensor_type;location;lat;lon;timestamp;P1;durP1;ratioP1;P2;durP2;ratioP2
21251;SDS011;10784;50.578;17.878;2023-11-19T00:00:19;33.78;;;13.40;;
21251;SDS011;10784;50.578;17.878;2023-11-19T00:03:11;33.80;;;12.30;;
21251;SDS011;10784;50.578;17.878;2023-11-19T00:05:46;29.73;;;11.95;;
21251;SDS011;10784;50.578;17.878;2023-11-19T00:08:19;35.55;;;12.98;;
21251;SDS011;10784;50.578;17.878;2023-11-19T00:10:52;32.22;;;11.20;;
21251;SDS011;10784;50.578;17.878;2023-11-19T00:13:25;31.95;;;11.23;;
21251;SDS011;10784;50.578;17.878;2023-11-19T00:15:58;27.80;;;9.98;;
21251;SDS011;10784;50.578;17.878;2023-11-19T00:18:31;27.95;;;11.27;;
21251;SDS011;10784;50.578;17.878;2023-11-19T00:21:05;29.92;;;11.55;;
21251;SDS011;10784;50.578;17.878;2023-11-19T00:23:40;27.33;;;10.05;;
21251;SDS011;10784;50.578;17.878;2023-11-19T00:26:13;28.55;;;11.35;;
21251;SDS011;10784;50.578;17.878;2023-11-19T00:28:51;30.92;;;11.88;;
21251;SDS011;10784;50.578;17.878;2023-11-19T00:31:26;38.20;;;12.30;;
21251;SDS011;10784;50.578;17.878;2023-11-19T00:34:02;31.90;;;11.23;;
21251;SDS011;10784;50.578;17.878;2023-11-19T00:36:35;24.45;;;10.93;;
21251;SDS011;10784;50.578;17.878;2023-11-19T00:39:08;28.98;;;11.68;;
21251;SDS011;10784;50.578;17.878;2023-11-19T00:41:40;24.77;;;9.85;;
21251;SDS011;10784;50.578;17.878;2023-11-19T00:44:13;31.85;;;11.23;;
21251;SDS011;10784;50.578;17.878;2023-11-19T00:46:47;31.30;;;11.90;;
21251;SDS011;10784;50.578;17.878;2023-11-19T00:49:20;26.45;;;10.55;;
21251;SDS011;10784;50.578;17.878;2023-11-19T00:51:53;31.48;;;11.23;;
21251;SDS011;10784;50.578;17.878;2023-11-19T00:54:25;26.17;;;9.95;;
21251;SDS011;10784;50.578;17.878;2023-11-19T00:56:58;22.50;;;9.80;;
21251;SDS011;10784;50.578;17.878;2023-11-19T00:59:31;26.85;;;9.75;;
21251;SDS011;10784;50.578;17.878;2023-11-19T01:02:05;30.77;;;10.32;;
21251;SDS011;10784;50.578;17.878;2023-11-19T01:04:39;23.83;;;9.90;;
21251;SDS011;10784;50.578;17.878;2023-11-19T01:07:13;34.60;;;10.75;;
21251;SDS011;10784;50.578;17.878;2023-11-19T01:09:45;29.38;;;10.10;;
21251;SDS011;10784;50.578;17.878;2023-11-19T01:12:19;21.25;;;9.15;;
21251;SDS011;10784;50.578;17.878;2023-11-19T01:14:51;28.83;;;11.60;;
21251;SDS011;10784;50.578;17.878;2023-11-19T01:17:24;35.70;;;11.57;;
21251;SDS011;10784;50.578;17.878;2023-11-19T01:19:57;28.45;;;11.15;;
21251;SDS011;10784;50.578;17.878;2023-11-19T01:22:32;24.17;;;9.55;;
21251;SDS011;10784;50.578;17.878;2023-11-19T01:25:05;20.67;;;8.32;;
21251;SDS011;10784;50.578;17.878;2023-11-19T01:27:38;32.22;;;10.35;;
21251;SDS011;10784;50.578;17.878;2023-11-19T01:30:11;29.95;;;10.60;;
21251;SDS011;10784;50.578;17.878;2023-11-19T01:32:47;35.60;;;9.90;;
21251;SDS011;10784;50.578;17.878;2023-11-19T01:35:20;34.13;;;10.77;;
21251;SDS011;10784;50.578;17.878;2023-11-19T01:37:56;28.08;;;10.82;;
21251;SDS011;10784;50.578;17.878;2023-11-19T01:40:29;28.70;;;10.10;;
21251;SDS011;10784;50.578;17.878;2023-11-19T01:43:02;29.55;;;11.60;;
21251;SDS011;10784;50.578;17.878;2023-11-19T01:45:39;32.35;;;10.65;;
21251;SDS011;10784;50.578;17.878;2023-11-19T01:48:12;28.20;;;9.77;;
21251;SDS011;10784;50.578;17.878;2023-11-19T01:50:46;31.38;;;10.68;;
21251;SDS011;10784;50.578;17.878;2023-11-19T01:53:19;36.65;;;12.93;;
21251;SDS011;10784;50.578;17.878;2023-11-19T01:55:52;28.38;;;9.55;;
21251;SDS011;10784;50.578;17.878;2023-11-19T01:58:25;30.63;;;10.40;;
21251;SDS011;10784;50.578;17.878;2023-11-19T02:00:58;36.42;;;11.43;;
21251;SDS011;10784;50.578;17.878;2023-11-19T02:03:31;37.42;;;11.50;;
21251;SDS011;10784;50.578;17.878;2023-11-19T02:06:06;26.73;;;9.68;;
21251;SDS011;10784;50.578;17.878;2023-11-19T02:08:40;27.02;;;9.70;;
21251;SDS011;10784;50.578;17.878;2023-11-19T02:11:13;31.42;;;10.75;;
21251;SDS011;10784;50.578;17.878;2023-11-19T02:13:46;35.42;;;11.15;;
21251;SDS011;10784;50.578;17.878;2023-11-19T02:16:18;26.25;;;10.60;;
21251;SDS011;10784;50.578;17.878;2023-11-19T02:18:52;22.40;;;9.07;;
21251;SDS011;10784;50.578;17.878;2023-11-19T02:21:25;29.65;;;10.27;;
21251;SDS011;10784;50.578;17.878;2023-11-19T02:23:58;30.63;;;11.73;;
21251;SDS011;10784;50.578;17.878;2023-11-19T02:26:42;36.78;;;12.38;;
21251;SDS011;10784;50.578;17.878;2023-11-19T02:29:16;30.38;;;11.85;;
21251;SDS011;10784;50.578;17.878;2023-11-19T02:31:49;32.50;;;11.38;;
21251;SDS011;10784;50.578;17.878;2023-11-19T02:34:22;40.83;;;13.77;;
21251;SDS011;10784;50.578;17.878;2023-11-19T02:36:55;39.50;;;12.93;;
21251;SDS011;10784;50.578;17.878;2023-11-19T02:39:28;36.05;;;11.73;;
21251;SDS011;10784;50.578;17.878;2023-11-19T02:42:01;36.83;;;12.68;;
21251;SDS011;10784;50.578;17.878;2023-11-19T02:44:34;39.25;;;13.02;;
21251;SDS011;10784;50.578;17.878;2023-11-19T02:47:06;33.75;;;12.68;;
21251;SDS011;10784;50.578;17.878;2023-11-19T02:49:40;36.67;;;13.13;;
21251;SDS011;10784;50.578;17.878;2023-11-19T02:52:14;33.78;;;12.93;;
21251;SDS011;10784;50.578;17.878;2023-11-19T02:54:47;33.08;;;12.98;;
21251;SDS011;10784;50.578;17.878;2023-11-19T02:57:22;30.55;;;12.38;;
21251;SDS011;10784;50.578;17.878;2023-11-19T02:59:55;32.85;;;12.30;;
21251;SDS011;10784;50.578;17.878;2023-11-19T03:02:28;37.45;;;12.48;;
21251;SDS011;10784;50.578;17.878;2023-11-19T03:05:07;34.13;;;11.25;;
21251;SDS011;10784;50.578;17.878;2023-11-19T03:07:41;32.67;;;13.23;;
21251;SDS011;10784;50.578;17.878;2023-11-19T03:10:15;43.17;;;14.75;;
21251;SDS011;10784;50.578;17.878;2023-11-19T03:12:48;36.65;;;11.98;;
21251;SDS011;10784;50.578;17.878;2023-11-19T03:15:21;33.70;;;12.90;;
21251;SDS011;10784;50.578;17.878;2023-11-19T03:17:53;41.03;;;13.55;;
21251;SDS011;10784;50.578;17.878;2023-11-19T03:20:27;34.22;;;13.45;;
21251;SDS011;10784;50.578;17.878;2023-11-19T03:23:01;40.95;;;12.98;;
21251;SDS011;10784;50.578;17.878;2023-11-19T03:25:34;41.05;;;13.30;;
21251;SDS011;10784;50.578;17.878;2023-11-19T03:28:08;33.90;;;11.95;;
21251;SDS011;10784;50.578;17.878;2023-11-19T03:30:41;32.42;;;12.88;;
21251;SDS011;10784;50.578;17.878;2023-11-19T03:33:14;28.65;;;12.48;;
21251;SDS011;10784;50.578;17.878;2023-11-19T03:35:47;28.35;;;10.70;;
21251;SDS011;10784;50.578;17.878;2023-11-19T03:38:20;34.40;;;12.23;;
21251;SDS011;10784;50.578;17.878;2023-11-19T03:40:53;31.90;;;11.57;;
21251;SDS011;10784;50.578;17.878;2023-11-19T03:43:26;40.42;;;13.65;;
21251;SDS011;10784;50.578;17.878;2023-11-19T03:46:00;32.72;;;11.93;;
21251;SDS011;10784;50.578;17.878;2023-11-19T03:48:32;33.42;;;11.18;;
21251;SDS011;10784;50.578;17.878;2023-11-19T03:51:05;33.72;;;13.63;;
21251;SDS011;10784;50.578;17.878;2023-11-19T03:53:38;33.42;;;13.15;;
21251;SDS011;10784;50.578;17.878;2023-11-19T03:56:11;30.77;;;11.80;;
21251;SDS011;10784;50.578;17.878;2023-11-19T03:58:44;23.88;;;10.18;;
21251;SDS011;10784;50.578;17.878;2023-11-19T04:01:17;32.33;;;11.88;;
21251;SDS011;10784;50.578;17.878;2023-11-19T04:03:50;29.20;;;10.55;;
21251;SDS011;10784;50.578;17.878;2023-11-19T04:06:23;32.85;;;12.07;;
21251;SDS011;10784;50.578;17.878;2023-11-19T04:08:56;33.92;;;12.25;;
21251;SDS011;10784;50.578;17.878;2023-11-19T04:11:29;29.02;;;11.75;;
21251;SDS011;10784;50.578;17.878;2023-11-19T04:14:02;28.05;;;12.30;;
21251;SDS011;10784;50.578;17.878;2023-11-19T04:16:35;27.85;;;11.45;;
21251;SDS011;10784;50.578;17.878;2023-11-19T04:19:08;29.90;;;11.65;;
21251;SDS011;10784;50.578;17.878;2023-11-19T04:21:41;29.75;;;11.65;;
21251;SDS011;10784;50.578;17.878;2023-11-19T04:24:14;33.92;;;10.98;;
21251;SDS011;10784;50.578;17.878;2023-11-19T04:26:47;33.47;;;11.82;;
21251;SDS011;10784;50.578;17.878;2023-11-19T04:29:20;30.23;;;11.35;;
21251;SDS011;10784;50.578;17.878;2023-11-19T04:31:54;28.60;;;11.68;;
21251;SDS011;10784;50.578;17.878;2023-11-19T04:34:27;25.48;;;11.63;;
21251;SDS011;10784;50.578;17.878;2023-11-19T04:37:00;31.35;;;10.95;;
21251;SDS011;10784;50.578;17.878;2023-11-19T04:39:39;29.45;;;11.57;;
21251;SDS011;10784;50.578;17.878;2023-11-19T04:42:12;36.80;;;12.10;;
21251;SDS011;10784;50.578;17.878;2023-11-19T04:44:45;35.15;;;12.50;;
21251;SDS011;10784;50.578;17.878;2023-11-19T04:47:18;24.70;;;10.65;;
21251;SDS011;10784;50.578;17.878;2023-11-19T04:49:51;36.30;;;11.90;;
21251;SDS011;10784;50.578;17.878;2023-11-19T04:52:24;28.13;;;10.52;;
21251;SDS011;10784;50.578;17.878;2023-11-19T04:54:56;34.60;;;11.90;;
21251;SDS011;10784;50.578;17.878;2023-11-19T04:57:29;25.98;;;10.40;;
21251;SDS011;10784;50.578;17.878;2023-11-19T05:00:04;34.15;;;10.75;;
21251;SDS011;10784;50.578;17.878;2023-11-19T05:02:48;34.63;;;11.27;;
21251;SDS011;10784;50.578;17.878;2023-11-19T05:05:21;33.03;;;10.52;;
21251;SDS011;10784;50.578;17.878;2023-11-19T05:07:54;32.22;;;12.50;;
21251;SDS011;10784;50.578;17.878;2023-11-19T05:10:27;35.40;;;11.18;;
21251;SDS011;10784;50.578;17.878;2023-11-19T05:13:01;29.75;;;10.90;;
21251;SDS011;10784;50.578;17.878;2023-11-19T05:15:33;28.30;;;12.20;;
21251;SDS011;10784;50.578;17.878;2023-11-19T05:18:06;24.10;;;10.43;;
21251;SDS011;10784;50.578;17.878;2023-11-19T05:20:39;27.42;;;11.02;;
21251;SDS011;10784;50.578;17.878;2023-11-19T05:23:12;25.30;;;10.25;;
21251;SDS011;10784;50.578;17.878;2023-11-19T05:25:48;31.08;;;11.30;;
21251;SDS011;10784;50.578;17.878;2023-11-19T05:28:21;29.33;;;12.55;;
21251;SDS011;10784;50.578;17.878;2023-11-19T05:30:54;21.48;;;9.40;;
21251;SDS011;10784;50.578;17.878;2023-11-19T05:33:27;30.35;;;12.27;;
21251;SDS011;10784;50.578;17.878;2023-11-19T05:36:00;31.58;;;10.10;;
21251;SDS011;10784;50.578;17.878;2023-11-19T05:38:33;20.23;;;9.88;;
21251;SDS011;10784;50.578;17.878;2023-11-19T05:41:06;25.38;;;9.50;;
21251;SDS011;10784;50.578;17.878;2023-11-19T05:43:39;21.77;;;9.15;;
21251;SDS011;10784;50.578;17.878;2023-11-19T05:46:12;24.33;;;9.52;;
21251;SDS011;10784;50.578;17.878;2023-11-19T05:48:49;30.02;;;10.20;;
21251;SDS011;10784;50.578;17.878;2023-11-19T05:51:22;19.25;;;9.02;;
21251;SDS011;10784;50.578;17.878;2023-11-19T05:53:56;29.38;;;9.65;;
21251;SDS011;10784;50.578;17.878;2023-11-19T05:56:29;27.00;;;10.02;;
21251;SDS011;10784;50.578;17.878;2023-11-19T05:59:05;21.60;;;10.15;;
21251;SDS011;10784;50.578;17.878;2023-11-19T06:01:48;25.90;;;9.18;;
21251;SDS011;10784;50.578;17.878;2023-11-19T06:04:21;37.70;;;10.52;;
21251;SDS011;10784;50.578;17.878;2023-11-19T06:06:54;24.45;;;9.65;;
21251;SDS011;10784;50.578;17.878;2023-11-19T06:09:27;40.17;;;10.18;;
21251;SDS011;10784;50.578;17.878;2023-11-19T06:12:00;24.98;;;9.05;;
21251;SDS011;10784;50.578;17.878;2023-11-19T06:14:35;27.02;;;10.80;;
21251;SDS011;10784;50.578;17.878;2023-11-19T06:17:07;30.45;;;10.32;;
21251;SDS011;10784;50.578;17.878;2023-11-19T06:19:41;26.30;;;10.63;;
21251;SDS011;10784;50.578;17.878;2023-11-19T06:22:14;23.75;;;10.30;;
21251;SDS011;10784;50.578;17.878;2023-11-19T06:24:47;32.25;;;10.98;;
21251;SDS011;10784;50.578;17.878;2023-11-19T06:27:20;21.02;;;9.15;;
21251;SDS011;10784;50.578;17.878;2023-11-19T06:29:53;27.92;;;9.27;;
21251;SDS011;10784;50.578;17.878;2023-11-19T06:32:26;34.13;;;9.75;;
21251;SDS011;10784;50.578;17.878;2023-11-19T06:35:00;18.40;;;7.90;;
21251;SDS011;10784;50.578;17.878;2023-11-19T06:37:33;24.00;;;10.20;;
21251;SDS011;10784;50.578;17.878;2023-11-19T06:40:06;25.40;;;10.02;;
21251;SDS011;10784;50.578;17.878;2023-11-19T06:42:41;22.75;;;10.52;;
21251;SDS011;10784;50.578;17.878;2023-11-19T06:45:14;24.55;;;10.75;;
21251;SDS011;10784;50.578;17.878;2023-11-19T06:47:47;29.58;;;10.70;;
21251;SDS011;10784;50.578;17.878;2023-11-19T06:50:20;25.30;;;8.20;;
21251;SDS011;10784;50.578;17.878;2023-11-19T06:52:53;24.98;;;9.52;;
21251;SDS011;10784;50.578;17.878;2023-11-19T06:55:26;22.50;;;8.05;;
21251;SDS011;10784;50.578;17.878;2023-11-19T06:57:59;19.48;;;8.98;;
21251;SDS011;10784;50.578;17.878;2023-11-19T07:00:33;23.50;;;9.75;;
21251;SDS011;10784;50.578;17.878;2023-11-19T07:03:08;30.05;;;10.50;;
21251;SDS011;10784;50.578;17.878;2023-11-19T07:05:42;27.42;;;10.55;;
21251;SDS011;10784;50.578;17.878;2023-11-19T07:08:16;27.63;;;10.93;;
21251;SDS011;10784;50.578;17.878;2023-11-19T07:10:49;28.15;;;10.75;;
21251;SDS011;10784;50.578;17.878;2023-11-19T07:13:21;25.38;;;9.63;;
21251;SDS011;10784;50.578;17.878;2023-11-19T07:15:55;24.08;;;9.45;;
21251;SDS011;10784;50.578;17.878;2023-11-19T07:18:28;26.38;;;10.68;;
21251;SDS011;10784;50.578;17.878;2023-11-19T07:21:01;22.88;;;9.27;;
21251;SDS011;10784;50.578;17.878;2023-11-19T07:23:35;25.92;;;8.77;;
21251;SDS011;10784;50.578;17.878;2023-11-19T07:26:08;23.00;;;8.25;;
21251;SDS011;10784;50.578;17.878;2023-11-19T07:28:41;31.98;;;10.50;;
21251;SDS011;10784;50.578;17.878;2023-11-19T07:31:14;18.63;;;8.70;;
21251;SDS011;10784;50.578;17.878;2023-11-19T07:33:47;22.55;;;9.20;;
21251;SDS011;10784;50.578;17.878;2023-11-19T07:36:20;25.83;;;10.27;;
21251;SDS011;10784;50.578;17.878;2023-11-19T07:38:53;33.20;;;10.98;;
21251;SDS011;10784;50.578;17.878;2023-11-19T07:41:28;25.67;;;10.30;;
21251;SDS011;10784;50.578;17.878;2023-11-19T07:44:01;26.20;;;10.60;;
21251;SDS011;10784;50.578;17.878;2023-11-19T07:46:34;21.73;;;8.77;;
21251;SDS011;10784;50.578;17.878;2023-11-19T07:49:07;19.08;;;7.90;;
21251;SDS011;10784;50.578;17.878;2023-11-19T07:51:40;23.33;;;8.57;;
21251;SDS011;10784;50.578;17.878;2023-11-19T07:54:14;21.92;;;8.10;;
21251;SDS011;10784;50.578;17.878;2023-11-19T07:56:47;15.70;;;7.43;;
21251;SDS011;10784;50.578;17.878;2023-11-19T07:59:19;13.82;;;6.80;;
21251;SDS011;10784;50.578;17.878;2023-11-19T08:01:53;17.35;;;7.55;;
21251;SDS011;10784;50.578;17.878;2023-11-19T08:04:25;17.65;;;6.30;;
21251;SDS011;10784;50.578;17.878;2023-11-19T08:06:58;16.05;;;6.57;;
21251;SDS011;10784;50.578;17.878;2023-11-19T08:09:31;19.50;;;6.97;;
21251;SDS011;10784;50.578;17.878;2023-11-19T08:12:05;15.85;;;5.80;;
21251;SDS011;10784;50.578;17.878;2023-11-19T08:14:38;12.73;;;4.15;;
21251;SDS011;10784;50.578;17.878;2023-11-19T08:17:12;12.45;;;5.15;;
21251;SDS011;10784;50.578;17.878;2023-11-19T08:19:45;11.85;;;5.10;;
21251;SDS011;10784;50.578;17.878;2023-11-19T08:22:18;11.82;;;5.65;;
21251;SDS011;10784;50.578;17.878;2023-11-19T08:24:50;9.73;;;5.13;;
21251;SDS011;10784;50.578;17.878;2023-11-19T08:27:23;15.05;;;4.72;;
21251;SDS011;10784;50.578;17.878;2023-11-19T08:29:59;10.63;;;4.80;;
21251;SDS011;10784;50.578;17.878;2023-11-19T08:32:32;10.80;;;5.15;;
21251;SDS011;10784;50.578;17.878;2023-11-19T08:35:05;6.78;;;3.95;;
21251;SDS011;10784;50.578;17.878;2023-11-19T08:37:38;18.05;;;6.28;;
21251;SDS011;10784;50.578;17.878;2023-11-19T08:40:11;17.75;;;6.68;;
21251;SDS011;10784;50.578;17.878;2023-11-19T08:42:45;30.73;;;8.40;;
21251;SDS011;10784;50.578;17.878;2023-11-19T08:45:18;18.17;;;7.85;;
21251;SDS011;10784;50.578;17.878;2023-11-19T08:47:51;14.32;;;6.13;;
21251;SDS011;10784;50.578;17.878;2023-11-19T08:50:24;14.20;;;5.05;;
21251;SDS011;10784;50.578;17.878;2023-11-19T08:52:57;21.95;;;7.35;;
21251;SDS011;10784;50.578;17.878;2023-11-19T08:55:30;18.27;;;5.85;;
21251;SDS011;10784;50.578;17.878;2023-11-19T08:58:04;13.85;;;5.88;;
21251;SDS011;10784;50.578;17.878;2023-11-19T09:00:36;20.25;;;6.03;;
21251;SDS011;10784;50.578;17.878;2023-11-19T09:03:09;15.82;;;6.03;;
21251;SDS011;10784;50.578;17.878;2023-11-19T09:05:43;16.92;;;6.65;;
21251;SDS011;10784;50.578;17.878;2023-11-19T09:08:16;18.42;;;6.43;;
21251;SDS011;10784;50.578;17.878;2023-11-19T09:10:49;14.50;;;5.13;;
21251;SDS011;10784;50.578;17.878;2023-11-19T09:13:22;15.85;;;6.45;;
21251;SDS011;10784;50.578;17.878;2023-11-19T09:15:55;14.07;;;6.13;;
21251;SDS011;10784;50.578;17.878;2023-11-19T09:18:32;10.65;;;5.15;;
21251;SDS011;10784;50.578;17.878;2023-11-19T09:21:04;9.40;;;5.30;;
21251;SDS011;10784;50.578;17.878;2023-11-19T09:23:38;13.82;;;5.78;;
21251;SDS011;10784;50.578;17.878;2023-11-19T09:26:11;19.33;;;6.38;;
21251;SDS011;10784;50.578;17.878;2023-11-19T09:28:44;12.45;;;4.80;;
21251;SDS011;10784;50.578;17.878;2023-11-19T09:31:17;9.95;;;5.43;;
21251;SDS011;10784;50.578;17.878;2023-11-19T09:33:51;9.07;;;4.45;;
21251;SDS011;10784;50.578;17.878;2023-11-19T09:36:24;8.82;;;3.53;;
21251;SDS011;10784;50.578;17.878;2023-11-19T09:38:57;15.07;;;5.65;;
21251;SDS011;10784;50.578;17.878;2023-11-19T09:41:30;17.60;;;8.43;;
21251;SDS011;10784;50.578;17.878;2023-11-19T09:44:03;7.95;;;3.88;;
21251;SDS011;10784;50.578;17.878;2023-11-19T09:46:36;7.05;;;2.92;;
21251;SDS011;10784;50.578;17.878;2023-11-19T09:49:10;7.35;;;4.05;;
21251;SDS011;10784;50.578;17.878;2023-11-19T09:51:43;5.47;;;2.97;;
21251;SDS011;10784;50.578;17.878;2023-11-19T09:54:15;10.45;;;3.38;;
21251;SDS011;10784;50.578;17.878;2023-11-19T09:56:48;6.38;;;3.85;;
21251;SDS011;10784;50.578;17.878;2023-11-19T09:59:21;6.50;;;3.65;;
21251;SDS011;10784;50.578;17.878;2023-11-19T10:01:55;10.38;;;4.15;;
21251;SDS011;10784;50.578;17.878;2023-11-19T10:04:29;11.30;;;4.45;;
21251;SDS011;10784;50.578;17.878;2023-11-19T10:07:03;7.80;;;3.63;;
21251;SDS011;10784;50.578;17.878;2023-11-19T10:09:36;10.77;;;3.67;;
21251;SDS011;10784;50.578;17.878;2023-11-19T10:12:09;11.02;;;3.47;;
21251;SDS011;10784;50.578;17.878;2023-11-19T10:14:42;12.60;;;4.47;;
21251;SDS011;10784;50.578;17.878;2023-11-19T10:17:15;12.85;;;5.60;;
21251;SDS011;10784;50.578;17.878;2023-11-19T10:19:48;13.77;;;5.72;;
21251;SDS011;10784;50.578;17.878;2023-11-19T10:22:22;17.77;;;5.72;;
21251;SDS011;10784;50.578;17.878;2023-11-19T10:24:55;13.82;;;5.15;;
21251;SDS011;10784;50.578;17.878;2023-11-19T10:27:28;12.50;;;5.25;;
21251;SDS011;10784;50.578;17.878;2023-11-19T10:30:01;7.18;;;3.45;;
21251;SDS011;10784;50.578;17.878;2023-11-19T10:32:34;7.47;;;4.30;;
21251;SDS011;10784;50.578;17.878;2023-11-19T10:35:07;14.05;;;5.20;;
21251;SDS011;10784;50.578;17.878;2023-11-19T10:37:40;12.00;;;4.57;;
21251;SDS011;10784;50.578;17.878;2023-11-19T10:40:14;14.10;;;5.18;;
21251;SDS011;10784;50.578;17.878;2023-11-19T10:42:47;12.05;;;4.80;;
21251;SDS011;10784;50.578;17.878;2023-11-19T10:45:21;11.82;;;4.75;;
21251;SDS011;10784;50.578;17.878;2023-11-19T10:47:54;9.75;;;3.78;;
21251;SDS011;10784;50.578;17.878;2023-11-19T10:50:28;9.85;;;4.85;;
21251;SDS011;10784;50.578;17.878;2023-11-19T10:53:02;14.43;;;5.30;;
21251;SDS011;10784;50.578;17.878;2023-11-19T10:55:36;11.35;;;4.93;;
21251;SDS011;10784;50.578;17.878;2023-11-19T10:58:11;11.23;;;4.18;;
21251;SDS011;10784;50.578;17.878;2023-11-19T11:00:47;11.43;;;5.03;;
21251;SDS011;10784;50.578;17.878;2023-11-19T11:03:26;9.25;;;3.83;;
21251;SDS011;10784;50.578;17.878;2023-11-19T11:06:03;8.13;;;4.15;;
21251;SDS011;10784;50.578;17.878;2023-11-19T11:08:39;15.68;;;6.10;;
21251;SDS011;10784;50.578;17.878;2023-11-19T11:11:13;11.73;;;5.03;;
21251;SDS011;10784;50.578;17.878;2023-11-19T11:13:49;9.05;;;4.20;;
21251;SDS011;10784;50.578;17.878;2023-11-19T11:16:22;5.45;;;3.75;;
21251;SDS011;10784;50.578;17.878;2023-11-19T11:18:56;10.45;;;4.45;;
21251;SDS011;10784;50.578;17.878;2023-11-19T11:21:29;9.32;;;3.88;;
21251;SDS011;10784;50.578;17.878;2023-11-19T11:26:51;12.05;;;4.45;;
21251;SDS011;10784;50.578;17.878;2023-11-19T11:32:13;8.27;;;3.53;;
21251;SDS011;10784;50.578;17.878;2023-11-19T11:39:57;6.70;;;4.15;;
21251;SDS011;10784;50.578;17.878;2023-11-19T11:42:32;7.70;;;4.00;;
21251;SDS011;10784;50.578;17.878;2023-11-19T11:45:06;7.72;;;3.63;;
21251;SDS011;10784;50.578;17.878;2023-11-19T11:50:17;9.50;;;4.47;;
21251;SDS011;10784;50.578;17.878;2023-11-19T11:55:37;6.13;;;4.57;;
21251;SDS011;10784;50.578;17.878;2023-11-19T11:58:29;8.45;;;3.63;;
21251;SDS011;10784;50.578;17.878;2023-11-19T12:01:03;7.13;;;3.47;;
21251;SDS011;10784;50.578;17.878;2023-11-19T12:03:38;9.15;;;3.40;;
21251;SDS011;10784;50.578;17.878;2023-11-19T12:06:11;8.52;;;3.63;;
21251;SDS011;10784;50.578;17.878;2023-11-19T12:08:44;10.13;;;3.58;;
21251;SDS011;10784;50.578;17.878;2023-11-19T12:11:20;3.65;;;3.17;;
21251;SDS011;10784;50.578;17.878;2023-11-19T12:13:54;9.32;;;4.13;;
21251;SDS011;10784;50.578;17.878;2023-11-19T12:16:38;5.38;;;3.53;;
21251;SDS011;10784;50.578;17.878;2023-11-19T12:19:12;5.55;;;2.78;;
21251;SDS011;10784;50.578;17.878;2023-11-19T12:21:45;5.38;;;3.17;;
21251;SDS011;10784;50.578;17.878;2023-11-19T12:24:19;6.88;;;3.30;;
21251;SDS011;10784;50.578;17.878;2023-11-19T12:26:52;11.52;;;5.00;;
21251;SDS011;10784;50.578;17.878;2023-11-19T12:29:27;11.20;;;6.18;;
21251;SDS011;10784;50.578;17.878;2023-11-19T12:31:59;8.13;;;2.97;;
21251;SDS011;10784;50.578;17.878;2023-11-19T12:34:38;8.60;;;4.07;;
21251;SDS011;10784;50.578;17.878;2023-11-19T12:37:11;8.13;;;3.97;;
21251;SDS011;10784;50.578;17.878;2023-11-19T12:39:44;8.75;;;4.32;;
21251;SDS011;10784;50.578;17.878;2023-11-19T12:42:17;14.82;;;5.22;;
21251;SDS011;10784;50.578;17.878;2023-11-19T12:44:54;10.40;;;4.25;;
21251;SDS011;10784;50.578;17.878;2023-11-19T12:47:28;16.80;;;5.45;;
21251;SDS011;10784;50.578;17.878;2023-11-19T12:50:01;13.25;;;5.15;;
21251;SDS011;10784;50.578;17.878;2023-11-19T12:52:37;7.75;;;3.47;;
21251;SDS011;10784;50.578;17.878;2023-11-19T12:55:26;10.35;;;4.95;;
21251;SDS011;10784;50.578;17.878;2023-11-19T12:58:01;8.95;;;3.70;;
21251;SDS011;10784;50.578;17.878;2023-11-19T13:00:34;9.10;;;3.40;;
21251;SDS011;10784;50.578;17.878;2023-11-19T13:03:07;6.53;;;3.25;;
21251;SDS011;10784;50.578;17.878;2023-11-19T13:05:40;7.18;;;3.70;;
21251;SDS011;10784;50.578;17.878;2023-11-19T13:08:13;9.35;;;4.68;;
21251;SDS011;10784;50.578;17.878;2023-11-19T13:13:22;9.77;;;4.55;;
21251;SDS011;10784;50.578;17.878;2023-11-19T13:16:01;10.57;;;4.57;;
21251;SDS011;10784;50.578;17.878;2023-11-19T13:18:35;4.93;;;3.63;;
21251;SDS011;10784;50.578;17.878;2023-11-19T13:21:12;11.25;;;4.63;;
21251;SDS011;10784;50.578;17.878;2023-11-19T13:23:45;10.65;;;6.13;;
21251;SDS011;10784;50.578;17.878;2023-11-19T13:26:18;11.52;;;4.70;;
21251;SDS011;10784;50.578;17.878;2023-11-19T13:28:51;10.30;;;5.40;;
21251;SDS011;10784;50.578;17.878;2023-11-19T13:31:24;13.52;;;4.45;;
21251;SDS011;10784;50.578;17.878;2023-11-19T13:33:57;8.70;;;5.03;;
21251;SDS011;10784;50.578;17.878;2023-11-19T13:36:31;9.77;;;5.82;;
21251;SDS011;10784;50.578;17.878;2023-11-19T13:39:04;10.93;;;4.85;;
21251;SDS011;10784;50.578;17.878;2023-11-19T13:41:37;10.35;;;5.57;;
21251;SDS011;10784;50.578;17.878;2023-11-19T13:44:09;9.90;;;4.65;;
21251;SDS011;10784;50.578;17.878;2023-11-19T13:46:44;13.63;;;5.47;;
21251;SDS011;10784;50.578;17.878;2023-11-19T13:49:16;10.52;;;5.22;;
21251;SDS011;10784;50.578;17.878;2023-11-19T13:51:49;12.75;;;5.47;;
21251;SDS011;10784;50.578;17.878;2023-11-19T13:54:22;15.07;;;6.35;;
21251;SDS011;10784;50.578;17.878;2023-11-19T13:56:55;10.60;;;5.55;;
21251;SDS011;10784;50.578;17.878;2023-11-19T13:59:30;13.98;;;5.82;;
21251;SDS011;10784;50.578;17.878;2023-11-19T14:02:05;11.70;;;5.15;;
21251;SDS011;10784;50.578;17.878;2023-11-19T14:04:39;9.98;;;5.20;;
21251;SDS011;10784;50.578;17.878;2023-11-19T14:07:12;10.60;;;4.60;;
21251;SDS011;10784;50.578;17.878;2023-11-19T14:09:45;11.13;;;4.80;;
21251;SDS011;10784;50.578;17.878;2023-11-19T14:12:18;15.43;;;6.30;;
21251;SDS011;10784;50.578;17.878;2023-11-19T14:14:51;13.70;;;5.22;;
21251;SDS011;10784;50.578;17.878;2023-11-19T14:17:24;12.55;;;5.97;;
21251;SDS011;10784;50.578;17.878;2023-11-19T14:19:58;9.43;;;3.83;;
21251;SDS011;10784;50.578;17.878;2023-11-19T14:22:31;11.98;;;4.65;;
21251;SDS011;10784;50.578;17.878;2023-11-19T14:25:04;13.70;;;3.95;;
21251;SDS011;10784;50.578;17.878;2023-11-19T14:27:38;13.07;;;3.92;;
21251;SDS011;10784;50.578;17.878;2023-11-19T14:30:12;11.43;;;4.35;;
21251;SDS011;10784;50.578;17.878;2023-11-19T14:32:46;13.25;;;5.75;;
21251;SDS011;10784;50.578;17.878;2023-11-19T14:35:20;13.32;;;4.43;;
21251;SDS011;10784;50.578;17.878;2023-11-19T14:37:53;13.95;;;4.80;;
21251;SDS011;10784;50.578;17.878;2023-11-19T14:40:26;18.42;;;5.90;;
21251;SDS011;10784;50.578;17.878;2023-11-19T14:43:02;11.88;;;5.07;;
21251;SDS011;10784;50.578;17.878;2023-11-19T14:45:35;17.25;;;4.50;;
21251;SDS011;10784;50.578;17.878;2023-11-19T14:48:19;28.70;;;8.85;;
21251;SDS011;10784;50.578;17.878;2023-11-19T14:50:51;33.50;;;7.72;;
21251;SDS011;10784;50.578;17.878;2023-11-19T14:53:25;20.98;;;6.28;;
21251;SDS011;10784;50.578;17.878;2023-11-19T14:55:57;13.48;;;6.72;;
21251;SDS011;10784;50.578;17.878;2023-11-19T14:58:30;15.45;;;6.63;;
21251;SDS011;10784;50.578;17.878;2023-11-19T15:01:03;19.85;;;8.10;;
21251;SDS011;10784;50.578;17.878;2023-11-19T15:03:37;20.17;;;7.22;;
21251;SDS011;10784;50.578;17.878;2023-11-19T15:06:13;19.90;;;8.43;;
21251;SDS011;10784;50.578;17.878;2023-11-19T15:08:46;19.17;;;8.48;;
21251;SDS011;10784;50.578;17.878;2023-11-19T15:11:18;10.25;;;5.47;;
21251;SDS011;10784;50.578;17.878;2023-11-19T15:13:52;10.20;;;5.05;;